createdAt,value
2018-08-24T00:00:34.002Z,57.1
2018-08-24T00:01:23.483Z,57
2018-08-24T00:02:14.336Z,57.1
2018-08-24T00:03:03.037Z,57
2018-08-24T00:03:54.262Z,57
2018-08-24T00:04:43.993Z,57
2018-08-24T00:05:34.121Z,57
2018-08-24T00:06:24.369Z,57
2018-08-24T00:07:14.409Z,57
2018-08-24T00:08:04.011Z,56.9
2018-08-24T00:08:54.648Z,56.9
2018-08-24T00:09:44.375Z,56.9
2018-08-24T00:10:34.739Z,56.9
2018-08-24T00:11:24.607Z,56.9
2018-08-24T00:12:14.555Z,56.9
2018-08-24T00:31:15.340Z,56.7
2018-08-24T00:32:05.203Z,56.8
2018-08-24T00:32:54.921Z,56.8
2018-08-24T00:33:44.736Z,56.8
2018-08-24T00:34:35.568Z,56.7
2018-08-24T00:35:25.113Z,56.7
2018-08-24T00:36:15.163Z,56.7
2018-08-24T00:37:05.477Z,56.7
2018-08-24T00:37:55.568Z,56.7
2018-08-24T00:38:45.085Z,56.7
2018-08-24T00:39:35.428Z,56.7
2018-08-24T00:40:25.541Z,56.7
2018-08-24T00:41:15.562Z,56.6
2018-08-24T00:42:05.116Z,56.6
2018-08-24T00:42:55.694Z,56.6
2018-08-24T00:43:45.783Z,56.6
2018-08-24T00:44:36.110Z,56.6
2018-08-24T00:45:25.879Z,56.6
2018-08-24T00:46:16.477Z,56.6
2018-08-24T00:47:05.690Z,56.6
2018-08-24T00:47:56.109Z,56.6
2018-08-24T00:48:46.142Z,56.6
2018-08-24T00:49:35.663Z,56.6
2018-08-24T00:50:26.291Z,56.6
2018-08-24T00:51:17.102Z,56.6
2018-08-24T00:52:06.382Z,56.6
2018-08-24T00:52:56.687Z,56.5
2018-08-24T00:53:46.263Z,56.5
2018-08-24T00:54:36.885Z,56.5
2018-08-24T00:55:26.558Z,56.5
2018-08-24T00:56:16.509Z,56.5
2018-08-24T00:57:07.584Z,56.5
2018-08-24T00:57:56.827Z,56.5
2018-08-24T00:58:46.907Z,56.5
2018-08-24T00:59:36.692Z,56.5
2018-08-24T01:00:27.080Z,56.4
2018-08-24T01:01:16.823Z,56.4
2018-08-24T01:02:07.150Z,56.4
2018-08-24T01:02:56.685Z,56.4
2018-08-24T01:03:47.563Z,56.4
2018-08-24T01:04:37.674Z,56.4
2018-08-24T01:05:27.433Z,56.4
2018-08-24T01:06:17.764Z,56.4
2018-08-24T01:07:08.070Z,56.4
2018-08-24T01:07:57.860Z,56.4
2018-08-24T01:08:47.977Z,56.4
2018-08-24T01:09:37.211Z,56.4
2018-08-24T01:10:27.475Z,56.4
2018-08-24T01:11:17.928Z,56.4
2018-08-24T01:12:08.179Z,56.4
2018-08-24T01:12:57.985Z,56.3
2018-08-24T01:13:47.506Z,56.3
2018-08-24T01:14:38.425Z,56.3
2018-08-24T01:15:28.200Z,56.3
2018-08-24T01:16:17.663Z,56.3
2018-08-24T01:17:08.342Z,56.3
2018-08-24T01:17:58.915Z,56.3
2018-08-24T01:18:48.675Z,56.3
2018-08-24T01:19:38.521Z,56.3
2018-08-24T01:20:28.318Z,56.3
2018-08-24T01:21:18.389Z,56.3
2018-08-24T01:22:09.274Z,56.3
2018-08-24T01:22:59.045Z,56.3
2018-08-24T01:23:48.811Z,56.3
2018-08-24T01:24:38.891Z,56.3
2018-08-24T01:25:28.690Z,56.3
2018-08-24T01:26:19.256Z,56.3
2018-08-24T01:27:09.108Z,56.2
2018-08-24T01:27:58.358Z,56.2
2018-08-24T01:28:49.740Z,56.2
2018-08-24T01:29:39.083Z,56.2
2018-08-24T01:30:29.356Z,56.2
2018-08-24T01:31:19.388Z,56.2
2018-08-24T01:32:09.747Z,56.2
2018-08-24T01:32:59.825Z,56.2
2018-08-24T01:33:49.591Z,56.2
2018-08-24T01:34:39.090Z,56.1
2018-08-24T01:35:29.712Z,56.1
2018-08-24T01:36:20.063Z,56.1
2018-08-24T01:37:10.110Z,56.1
2018-08-24T01:38:00.127Z,56.1
2018-08-24T01:38:50.281Z,56.1
2018-08-24T01:39:40.009Z,56.1
2018-08-24T01:40:30.413Z,56.1
2018-08-24T01:41:20.170Z,56.1
2018-08-24T01:42:25.167Z,56.1
2018-08-24T01:42:59.972Z,56.1
2018-08-24T01:43:49.855Z,56.1
2018-08-24T01:44:40.169Z,56.1
2018-08-24T01:45:30.027Z,56.1
2018-08-24T01:46:19.770Z,56.1
2018-08-24T01:47:10.685Z,56
2018-08-24T01:48:00.487Z,56
2018-08-24T01:48:49.715Z,56
2018-08-24T01:49:40.740Z,56
2018-08-24T01:50:30.859Z,56
2018-08-24T01:51:20.757Z,56
2018-08-24T01:52:11.736Z,56
2018-08-24T01:53:01.048Z,56
2018-08-24T01:53:51.589Z,56
2018-08-24T01:54:41.152Z,55.9
2018-08-24T01:55:31.292Z,56
2018-08-24T01:56:21.308Z,55.9
2018-08-24T01:57:11.648Z,55.9
2018-08-24T01:58:01.465Z,55.9
2018-08-24T01:58:51.823Z,55.9
2018-08-24T01:59:41.547Z,55.9
2018-08-24T02:00:31.646Z,55.9
2018-08-24T02:01:21.996Z,55.9
2018-08-24T02:02:11.467Z,55.9
2018-08-24T02:03:01.314Z,55.9
2018-08-24T02:03:52.481Z,55.9
2018-08-24T02:04:42.495Z,55.9
2018-08-24T02:05:31.736Z,55.9
2018-08-24T02:06:22.128Z,55.9
2018-08-24T02:07:12.650Z,55.9
2018-08-24T02:08:02.500Z,55.8
2018-08-24T02:08:51.767Z,55.8
2018-08-24T02:09:57.268Z,55.8
2018-08-24T02:10:32.702Z,55.8
2018-08-24T02:11:22.461Z,55.8
2018-08-24T02:12:12.573Z,55.8
2018-08-24T02:13:02.013Z,55.8
2018-08-24T02:13:53.050Z,55.8
2018-08-24T02:14:42.724Z,55.8
2018-08-24T02:15:32.516Z,55.8
2018-08-24T02:16:22.552Z,55.8
2018-08-24T02:17:12.683Z,55.8
2018-08-24T02:18:02.408Z,55.8
2018-08-24T02:18:53.318Z,55.8
2018-08-24T02:19:42.828Z,55.8
2018-08-24T02:20:32.879Z,55.8
2018-08-24T02:21:22.993Z,55.7
2018-08-24T02:22:13.310Z,55.7
2018-08-24T02:23:03.641Z,55.7
2018-08-24T02:23:53.942Z,55.7
2018-08-24T02:24:43.233Z,55.7
2018-08-24T02:25:33.333Z,55.7
2018-08-24T02:26:23.077Z,55.7
2018-08-24T02:27:13.412Z,55.7
2018-08-24T02:28:03.867Z,55.6
2018-08-24T02:28:53.517Z,55.6
2018-08-24T02:29:43.348Z,55.6
2018-08-24T02:30:34.492Z,55.6
2018-08-24T02:31:24.593Z,55.6
2018-08-24T02:32:13.838Z,55.6
2018-08-24T02:33:04.126Z,55.6
2018-08-24T02:33:54.422Z,55.6
2018-08-24T02:34:44.775Z,55.6
2018-08-24T02:35:34.889Z,55.6
2018-08-24T02:36:23.839Z,55.6
2018-08-24T02:37:14.170Z,55.6
2018-08-24T02:38:18.899Z,55.6
2018-08-24T02:38:54.596Z,55.6
2018-08-24T02:39:44.654Z,55.6
2018-08-24T02:40:34.144Z,55.6
2018-08-24T02:41:25.317Z,55.6
2018-08-24T02:42:14.884Z,55.6
2018-08-24T02:43:05.221Z,55.6
2018-08-24T02:43:54.905Z,55.5
2018-08-24T02:44:45.568Z,55.5
2018-08-24T02:45:35.110Z,55.5
2018-08-24T02:46:25.623Z,55.5
2018-08-24T02:47:15.485Z,55.5
2018-08-24T02:48:05.568Z,55.5
2018-08-24T02:48:55.644Z,55.5
2018-08-24T02:49:45.389Z,55.4
2018-08-24T02:50:35.189Z,55.4
2018-08-24T02:51:25.493Z,55.4
2018-08-24T02:52:15.617Z,55.4
2018-08-24T02:53:05.631Z,55.4
2018-08-24T02:53:55.440Z,55.4
2018-08-24T02:54:45.774Z,55.4
2018-08-24T02:55:35.637Z,55.4
2018-08-24T02:56:25.382Z,55.4
2018-08-24T02:57:15.613Z,55.4
2018-08-24T02:58:05.902Z,55.4
2018-08-24T02:58:55.659Z,55.4
2018-08-24T02:59:45.667Z,55.4
2018-08-24T03:00:50.416Z,55.4
2018-08-24T03:01:26.030Z,55.4
2018-08-24T03:02:16.680Z,55.3
2018-08-24T03:03:05.683Z,55.4
2018-08-24T03:03:56.526Z,55.4
2018-08-24T03:04:46.548Z,55.3
2018-08-24T03:05:39.756Z,55.3
2018-08-24T03:06:26.663Z,55.3
2018-08-24T03:07:17.008Z,55.3
2018-08-24T03:08:07.621Z,55.3
2018-08-24T03:08:57.127Z,55.3
2018-08-24T03:09:47.217Z,55.3
2018-08-24T03:10:36.829Z,55.3
2018-08-24T03:11:27.604Z,55.3
2018-08-24T03:12:17.366Z,55.3
2018-08-24T03:13:07.234Z,55.3
2018-08-24T03:13:56.726Z,55.3
2018-08-24T03:14:46.822Z,55.3
2018-08-24T03:15:37.639Z,55.3
2018-08-24T03:16:28.249Z,55.3
2018-08-24T03:17:17.573Z,55.3
2018-08-24T03:18:07.023Z,55.3
2018-08-24T03:18:57.724Z,55.2
2018-08-24T03:19:47.183Z,55.2
2018-08-24T03:20:37.775Z,55.2
2018-08-24T03:21:28.139Z,55.2
2018-08-24T03:22:18.488Z,55.2
2018-08-24T03:23:07.985Z,55.2
2018-08-24T03:23:58.017Z,55.2
2018-08-24T03:24:47.598Z,55.2
2018-08-24T03:25:37.704Z,55.1
2018-08-24T03:26:27.990Z,55.1
2018-08-24T03:27:18.329Z,55.1
2018-08-24T03:28:08.621Z,55.1
2018-08-24T03:28:58.391Z,55.1
2018-08-24T03:29:48.703Z,55.1
2018-08-24T03:30:38.798Z,55.1
2018-08-24T03:31:28.671Z,55.1
2018-08-24T03:32:19.303Z,55.1
2018-08-24T03:33:08.711Z,55.1
2018-08-24T03:33:58.486Z,55.1
2018-08-24T03:34:49.056Z,55.1
2018-08-24T03:35:39.323Z,55.1
2018-08-24T03:36:29.290Z,55.1
2018-08-24T03:37:18.550Z,55.1
2018-08-24T03:38:08.681Z,55.1
2018-08-24T03:38:58.957Z,55
2018-08-24T03:39:49.771Z,55
2018-08-24T03:40:39.061Z,55
2018-08-24T03:41:29.655Z,55
2018-08-24T03:42:19.694Z,55
2018-08-24T03:43:09.819Z,55
2018-08-24T03:43:59.861Z,55
2018-08-24T03:44:49.380Z,55
2018-08-24T03:45:39.250Z,55
2018-08-24T03:46:29.252Z,54.9
2018-08-24T03:47:19.316Z,55
2018-08-24T03:48:09.246Z,54.9
2018-08-24T03:48:58.736Z,54.9
2018-08-24T03:49:50.373Z,54.9
2018-08-24T03:50:40.378Z,54.9
2018-08-24T03:51:30.480Z,54.9
2018-08-24T03:52:35.159Z,54.9
2018-08-24T03:53:10.145Z,54.9
2018-08-24T03:54:00.083Z,54.9
2018-08-24T03:54:49.282Z,54.9
2018-08-24T03:55:40.441Z,54.9
2018-08-24T03:56:30.801Z,54.9
2018-08-24T03:57:20.822Z,54.9
2018-08-24T03:58:10.625Z,54.9
2018-08-24T03:59:00.929Z,54.9
2018-08-24T03:59:50.774Z,54.9
2018-08-24T04:00:40.842Z,54.9
2018-08-24T04:01:31.222Z,54.8
2018-08-24T04:02:20.826Z,54.8
2018-08-24T04:03:10.787Z,54.8
2018-08-24T04:04:01.075Z,54.8
2018-08-24T04:04:50.909Z,54.8
2018-08-24T04:05:41.202Z,54.8
2018-08-24T04:06:31.584Z,54.8
2018-08-24T04:07:21.657Z,54.8
2018-08-24T04:08:11.403Z,54.8
2018-08-24T04:09:01.541Z,54.8
2018-08-24T04:09:51.791Z,54.8
2018-08-24T04:10:41.903Z,54.8
2018-08-24T04:11:31.719Z,54.8
2018-08-24T04:12:21.726Z,54.8
2018-08-24T04:13:12.303Z,54.8
2018-08-24T04:14:02.578Z,54.8
2018-08-24T04:14:51.922Z,54.8
2018-08-24T04:15:42.273Z,54.8
2018-08-24T04:16:31.809Z,54.7
2018-08-24T04:17:22.603Z,54.7
2018-08-24T04:18:12.189Z,54.7
2018-08-24T04:19:01.968Z,54.7
2018-08-24T04:19:52.669Z,54.7
2018-08-24T04:20:42.553Z,54.7
2018-08-24T04:21:32.237Z,54.7
2018-08-24T04:22:22.508Z,54.7
2018-08-24T04:23:12.615Z,54.6
2018-08-24T04:24:02.073Z,54.7
2018-08-24T04:24:53.023Z,54.6
2018-08-24T04:25:43.377Z,54.6
2018-08-24T04:26:33.150Z,54.6
2018-08-24T04:27:23.175Z,54.6
2018-08-24T04:28:13.253Z,54.6
2018-08-24T04:29:03.312Z,54.6
2018-08-24T04:29:53.346Z,54.6
2018-08-24T04:30:43.450Z,54.6
2018-08-24T04:31:33.561Z,54.6
2018-08-24T04:32:23.849Z,54.6
2018-08-24T04:33:13.621Z,54.6
2018-08-24T04:34:03.361Z,54.6
2018-08-24T04:34:54.310Z,54.6
2018-08-24T04:35:43.533Z,54.6
2018-08-24T04:36:33.304Z,54.6
2018-08-24T04:37:23.465Z,54.6
2018-08-24T04:38:13.668Z,54.5
2018-08-24T04:39:03.271Z,54.5
2018-08-24T04:39:53.276Z,54.5
2018-08-24T04:40:43.415Z,54.5
2018-08-24T04:41:33.416Z,54.5
2018-08-24T04:42:24.610Z,54.5
2018-08-24T05:00:25.591Z,54.3
2018-08-24T05:01:16.419Z,54.3
2018-08-24T05:02:06.525Z,54.3
2018-08-24T05:02:56.538Z,54.3
2018-08-24T05:03:46.339Z,54.3
2018-08-24T05:04:36.649Z,54.3
2018-08-24T05:05:27.038Z,54.3
2018-08-24T05:06:16.568Z,54.3
2018-08-24T05:07:06.575Z,54.3
2018-08-24T05:07:56.929Z,54.3
2018-08-24T05:08:46.415Z,54.3
2018-08-24T05:09:36.836Z,54.3
2018-08-24T05:10:27.403Z,54.3
2018-08-24T05:11:16.604Z,54.3
2018-08-24T05:12:06.376Z,54.3
2018-08-24T05:12:57.033Z,54.3
2018-08-24T05:13:47.367Z,54.2
2018-08-24T05:14:37.455Z,54.3
2018-08-24T05:15:27.568Z,54.2
2018-08-24T05:16:17.267Z,54.2
2018-08-24T05:17:07.107Z,54.2
2018-08-24T05:17:57.128Z,54.2
2018-08-24T05:18:47.474Z,54.2
2018-08-24T05:19:37.522Z,54.2
2018-08-24T05:20:27.837Z,54.2
2018-08-24T05:21:17.161Z,54.1
2018-08-24T05:22:07.140Z,54.2
2018-08-24T05:22:57.801Z,54.2
2018-08-24T05:23:47.940Z,54.1
2018-08-24T05:24:37.627Z,54.1
2018-08-24T05:25:27.987Z,54.1
2018-08-24T05:26:17.755Z,54.1
2018-08-24T05:27:07.799Z,54.1
2018-08-24T05:27:57.779Z,54.1
2018-08-24T05:28:48.279Z,54.1
2018-08-24T05:29:38.302Z,54.1
2018-08-24T05:30:28.082Z,54.1
2018-08-24T05:31:18.684Z,54.1
2018-08-24T05:32:08.523Z,54.1
2018-08-24T05:32:58.246Z,54.1
2018-08-24T05:33:48.308Z,54.1
2018-08-24T05:34:38.401Z,54.1
2018-08-24T05:35:28.606Z,54.1
2018-08-24T05:36:18.768Z,54.1
2018-08-24T05:37:08.281Z,54
2018-08-24T05:37:58.443Z,54
2018-08-24T05:38:48.148Z,54
2018-08-24T05:39:38.187Z,54
2018-08-24T05:40:29.352Z,54
2018-08-24T05:41:19.860Z,54
2018-08-24T05:42:09.543Z,54
2018-08-24T05:42:59.339Z,54
2018-08-24T05:43:49.361Z,54
2018-08-24T05:44:39.438Z,53.9
2018-08-24T05:45:29.753Z,54
2018-08-24T05:46:19.299Z,53.9
2018-08-24T05:47:09.136Z,53.9
2018-08-24T05:47:59.991Z,53.9
2018-08-24T05:48:50.476Z,53.9
2018-08-24T05:49:39.827Z,53.9
2018-08-24T05:50:30.046Z,53.9
2018-08-24T05:51:20.025Z,53.9
2018-08-24T05:52:10.299Z,53.9
2018-08-24T05:52:59.791Z,53.9
2018-08-24T05:53:49.869Z,53.9
2018-08-24T05:54:40.484Z,53.9
2018-08-24T05:55:30.106Z,53.9
2018-08-24T05:56:20.651Z,53.9
2018-08-24T05:57:10.933Z,53.9
2018-08-24T05:57:59.602Z,53.9
2018-08-24T05:58:50.847Z,53.8
2018-08-24T05:59:39.431Z,53.8
2018-08-24T06:00:30.693Z,53.9
2018-08-24T06:01:20.438Z,53.8
2018-08-24T06:02:11.365Z,53.8
2018-08-24T06:03:01.368Z,53.8
2018-08-24T06:03:50.899Z,53.8
2018-08-24T06:04:41.246Z,53.8
2018-08-24T06:05:31.016Z,53.8
2018-08-24T06:06:21.378Z,53.8
2018-08-24T06:07:11.451Z,53.8
2018-08-24T06:08:01.231Z,53.8
2018-08-24T06:08:51.287Z,53.8
2018-08-24T06:09:41.681Z,53.8
2018-08-24T06:10:31.744Z,53.8
2018-08-24T06:11:21.470Z,53.8
2018-08-24T06:12:11.828Z,53.8
2018-08-24T06:13:01.863Z,53.8
2018-08-24T06:13:51.671Z,53.7
2018-08-24T06:14:42.076Z,53.8
2018-08-24T06:15:32.082Z,53.8
2018-08-24T06:16:21.309Z,53.7
2018-08-24T06:17:11.954Z,53.7
2018-08-24T06:18:02.406Z,53.7
2018-08-24T06:18:52.072Z,53.7
2018-08-24T06:19:42.148Z,53.7
2018-08-24T06:20:31.980Z,53.7
2018-08-24T06:21:22.311Z,53.7
2018-08-24T06:22:11.805Z,53.6
2018-08-24T06:23:02.391Z,53.6
2018-08-24T06:23:51.595Z,53.7
2018-08-24T06:24:42.133Z,53.6
2018-08-24T06:25:32.872Z,53.6
2018-08-24T06:26:22.917Z,53.6
2018-08-24T06:27:12.433Z,53.6
2018-08-24T06:28:02.165Z,53.6
2018-08-24T06:28:52.575Z,53.6
2018-08-24T06:29:42.619Z,53.6
2018-08-24T06:30:32.972Z,53.6
2018-08-24T06:31:23.011Z,53.6
2018-08-24T06:32:13.084Z,53.6
2018-08-24T06:33:03.715Z,53.6
2018-08-24T06:33:53.271Z,53.6
2018-08-24T06:34:43.591Z,53.6
2018-08-24T06:35:32.762Z,53.6
2018-08-24T06:36:23.695Z,53.6
2018-08-24T06:37:13.188Z,53.6
2018-08-24T06:38:03.530Z,53.5
2018-08-24T06:38:53.886Z,53.5
2018-08-24T06:39:43.641Z,53.5
2018-08-24T06:40:34.023Z,53.5
2018-08-24T06:41:24.023Z,53.5
2018-08-24T06:42:13.830Z,53.5
2018-08-24T06:43:04.216Z,53.5
2018-08-24T06:43:53.255Z,53.4
2018-08-24T06:44:44.305Z,53.5
2018-08-24T06:45:33.806Z,53.5
2018-08-24T06:46:24.482Z,53.4
2018-08-24T06:47:14.949Z,53.4
2018-08-24T06:48:04.629Z,53.5
2018-08-24T06:48:54.106Z,53.5
2018-08-24T06:49:44.705Z,53.4
2018-08-24T06:50:34.188Z,53.3
2018-08-24T06:51:24.515Z,53.1
2018-08-24T06:52:14.322Z,53.1
2018-08-24T06:53:04.548Z,53
2018-08-24T06:53:56.261Z,52.9
2018-08-24T06:54:44.514Z,52.9
2018-08-24T06:55:34.868Z,52.9
2018-08-24T06:56:25.282Z,52.9
2018-08-24T06:57:15.002Z,52.9
2018-08-24T06:58:05.104Z,52.9
2018-08-24T06:58:55.416Z,52.9
2018-08-24T06:59:45.971Z,52.8
2018-08-24T07:00:34.683Z,52.8
2018-08-24T07:01:25.338Z,52.8
2018-08-24T07:02:15.425Z,52.8
2018-08-24T07:03:05.741Z,52.8
2018-08-24T07:03:55.784Z,52.8
2018-08-24T07:04:45.575Z,52.8
2018-08-24T07:05:36.060Z,52.8
2018-08-24T07:06:25.515Z,52.8
2018-08-24T07:07:15.776Z,52.8
2018-08-24T07:08:05.372Z,52.8
2018-08-24T07:08:56.435Z,52.8
2018-08-24T07:09:46.213Z,52.8
2018-08-24T07:10:36.363Z,52.8
2018-08-24T07:11:26.390Z,52.7
2018-08-24T07:12:16.497Z,52.7
2018-08-24T07:13:06.431Z,52.7
2018-08-24T07:13:56.309Z,52.6
2018-08-24T07:14:46.900Z,52.6
2018-08-24T07:15:36.460Z,52.6
2018-08-24T07:16:26.768Z,52.6
2018-08-24T07:17:16.843Z,52.6
2018-08-24T07:18:06.630Z,52.6
2018-08-24T07:18:56.213Z,52.6
2018-08-24T07:19:46.737Z,52.6
2018-08-24T07:20:36.807Z,52.6
2018-08-24T07:21:26.861Z,52.6
2018-08-24T07:22:16.353Z,52.5
2018-08-24T07:23:06.723Z,52.5
2018-08-24T07:23:57.837Z,52.5
2018-08-24T07:24:47.112Z,52.4
2018-08-24T07:25:37.167Z,52.5
2018-08-24T07:26:26.973Z,52.4
2018-08-24T07:27:17.571Z,52.4
2018-08-24T07:28:07.679Z,52.4
2018-08-24T07:28:57.962Z,52.4
2018-08-24T07:29:47.267Z,52.4
2018-08-24T07:30:37.574Z,52.4
2018-08-24T07:31:27.637Z,52.5
2018-08-24T07:32:17.729Z,52.5
2018-08-24T07:33:07.504Z,52.6
2018-08-24T07:33:58.319Z,52.6
2018-08-24T07:34:48.150Z,52.6
2018-08-24T07:35:37.989Z,52.6
2018-08-24T07:36:27.466Z,52.7
2018-08-24T07:37:18.372Z,52.7
2018-08-24T07:38:08.173Z,52.7
2018-08-24T07:38:57.960Z,52.8
2018-08-24T07:39:48.547Z,52.8
2018-08-24T07:40:38.650Z,52.8
2018-08-24T07:41:28.423Z,52.8
2018-08-24T07:42:18.772Z,52.9
2018-08-24T07:43:08.805Z,52.9
2018-08-24T07:43:58.349Z,52.9
2018-08-24T07:44:48.369Z,52.9
2018-08-24T07:45:39.017Z,53
2018-08-24T07:46:28.300Z,53.1
2018-08-24T07:47:18.604Z,53.1
2018-08-24T07:48:08.657Z,53.1
2018-08-24T07:48:59.359Z,53.1
2018-08-24T07:49:49.022Z,53.1
2018-08-24T07:50:39.481Z,53.1
2018-08-24T07:51:29.173Z,53.2
2018-08-24T07:52:19.532Z,53.3
2018-08-24T07:53:09.617Z,53.3
2018-08-24T07:53:59.688Z,53.3
2018-08-24T07:54:49.119Z,53.4
2018-08-24T07:55:39.570Z,53.4
2018-08-24T07:56:29.826Z,53.4
2018-08-24T07:57:19.668Z,53.5
2018-08-24T07:58:09.949Z,53.5
2018-08-24T07:59:00.043Z,53.6
2018-08-24T07:59:50.635Z,53.6
2018-08-24T08:00:39.435Z,53.6
2018-08-24T08:01:30.277Z,53.6
2018-08-24T08:02:20.327Z,53.7
2018-08-24T08:03:10.371Z,53.7
2018-08-24T08:04:00.176Z,53.8
2018-08-24T08:04:50.770Z,53.8
2018-08-24T08:05:40.409Z,53.8
2018-08-24T08:06:30.193Z,53.9
2018-08-24T08:07:20.708Z,53.9
2018-08-24T08:08:10.487Z,53.9
2018-08-24T08:09:00.562Z,53.9
2018-08-24T08:09:50.655Z,54
2018-08-24T08:10:40.392Z,54.1
2018-08-24T08:11:30.735Z,54.1
2018-08-24T08:12:20.545Z,54.1
2018-08-24T08:13:10.892Z,54.1
2018-08-24T08:14:01.240Z,54.2
2018-08-24T08:14:51.290Z,54.3
2018-08-24T08:15:41.118Z,54.3
2018-08-24T08:16:31.151Z,54.3
2018-08-24T08:17:21.003Z,54.4
2018-08-24T08:18:11.941Z,54.4
2018-08-24T08:19:01.049Z,54.4
2018-08-24T08:19:51.735Z,54.5
2018-08-24T08:20:41.724Z,54.5
2018-08-24T08:21:31.237Z,54.6
2018-08-24T08:22:21.632Z,54.6
2018-08-24T08:23:11.963Z,54.7
2018-08-24T08:24:01.429Z,54.7
2018-08-24T08:24:53.160Z,54.8
2018-08-24T08:25:41.882Z,54.8
2018-08-24T08:26:31.915Z,54.9
2018-08-24T08:27:22.294Z,54.9
2018-08-24T08:28:12.349Z,54.9
2018-08-24T08:29:02.060Z,55
2018-08-24T08:29:52.169Z,55.1
2018-08-24T08:30:41.782Z,55.1
2018-08-24T08:31:32.293Z,55.1
2018-08-24T08:32:22.640Z,55.2
2018-08-24T08:33:12.704Z,55.3
2018-08-24T08:34:02.764Z,55.3
2018-08-24T08:34:53.108Z,55.3
2018-08-24T08:35:43.148Z,55.4
2018-08-24T08:36:32.981Z,55.4
2018-08-24T08:37:23.329Z,55.4
2018-08-24T08:38:12.855Z,55.5
2018-08-24T08:39:03.586Z,55.6
2018-08-24T08:39:52.461Z,55.6
2018-08-24T08:40:42.993Z,55.6
2018-08-24T08:41:33.100Z,55.7
2018-08-24T08:42:23.136Z,55.7
2018-08-24T08:43:13.496Z,55.8
2018-08-24T08:44:02.963Z,55.8
2018-08-24T08:44:53.395Z,55.8
2018-08-24T08:45:43.151Z,55.9
2018-08-24T08:46:33.792Z,55.9
2018-08-24T08:47:23.803Z,56
2018-08-24T08:48:13.281Z,56
2018-08-24T08:49:03.948Z,56.1
2018-08-24T08:49:53.455Z,56.1
2018-08-24T08:50:44.100Z,56.1
2018-08-24T08:51:34.150Z,56.2
2018-08-24T08:52:24.188Z,56.3
2018-08-24T08:53:14.281Z,56.3
2018-08-24T08:54:04.323Z,56.4
2018-08-24T08:54:54.160Z,56.4
2018-08-24T08:55:43.665Z,56.4
2018-08-24T08:56:34.055Z,56.5
2018-08-24T08:57:24.305Z,56.6
2018-08-24T08:58:14.662Z,56.6
2018-08-24T09:14:56.533Z,57.5
2018-08-24T09:15:45.799Z,57.6
2018-08-24T09:16:35.277Z,57.6
2018-08-24T09:17:25.637Z,57.7
2018-08-24T09:18:15.456Z,57.7
2018-08-24T09:19:56.596Z,57.8
2018-08-24T09:20:45.924Z,57.8
2018-08-24T09:21:36.251Z,57.9
2018-08-24T09:22:26.321Z,57.9
2018-08-24T09:23:15.487Z,57.9
2018-08-24T09:24:05.888Z,58
2018-08-24T09:24:56.207Z,58
2018-08-24T09:25:47.391Z,58.1
2018-08-24T09:26:36.619Z,58.1
2018-08-24T09:27:26.157Z,58.2
2018-08-24T09:28:16.774Z,58.2
2018-08-24T09:29:06.860Z,58.3
2018-08-24T09:29:56.650Z,58.3
2018-08-24T09:30:46.393Z,58.3
2018-08-24T09:31:36.748Z,58.4
2018-08-24T09:32:28.113Z,58.4
2018-08-24T09:33:16.670Z,58.4
2018-08-24T09:34:06.196Z,58.5
2018-08-24T09:34:56.673Z,58.5
2018-08-24T09:36:36.871Z,58.6
2018-08-24T09:37:27.219Z,58.7
2018-08-24T09:38:17.033Z,58.7
2018-08-24T09:39:07.082Z,58.8
2018-08-24T09:39:56.713Z,58.8
2018-08-24T09:40:47.264Z,58.9
2018-08-24T09:41:37.267Z,58.9
2018-08-24T09:42:27.603Z,58.9
2018-08-24T09:43:17.694Z,59
2018-08-24T09:44:08.239Z,59
2018-08-24T09:44:57.832Z,59.1
2018-08-24T09:45:47.561Z,59.1
2018-08-24T09:46:37.713Z,59.2
2018-08-24T09:47:27.409Z,59.3
2018-08-24T09:48:18.339Z,59.3
2018-08-24T09:49:09.577Z,59.3
2018-08-24T09:49:57.892Z,59.3
2018-08-24T09:50:47.803Z,59.4
2018-08-24T09:51:38.692Z,59.5
2018-08-24T09:52:28.767Z,59.5
2018-08-24T09:53:18.487Z,59.6
2018-08-24T09:54:08.480Z,59.6
2018-08-24T09:54:58.011Z,59.7
2018-08-24T09:55:48.621Z,59.7
2018-08-24T09:56:38.980Z,59.8
2018-08-24T09:57:28.793Z,59.8
2018-08-24T09:58:19.098Z,59.9
2018-08-24T09:59:09.147Z,59.9
2018-08-24T09:59:59.241Z,59.9
2018-08-24T10:00:48.797Z,60
2018-08-24T10:01:39.096Z,60.1
2018-08-24T10:02:29.478Z,60.1
2018-08-24T10:03:19.228Z,60.1
2018-08-24T10:04:09.573Z,60.2
2018-08-24T10:04:59.330Z,60.3
2018-08-24T10:05:49.145Z,60.3
2018-08-24T10:06:39.693Z,60.3
2018-08-24T10:07:29.885Z,60.3
2018-08-24T10:08:19.598Z,60.4
2018-08-24T10:09:09.998Z,60.5
2018-08-24T10:10:00.268Z,60.5
2018-08-24T10:10:49.519Z,60.6
2018-08-24T10:11:39.908Z,60.6
2018-08-24T10:12:30.401Z,60.7
2018-08-24T10:13:20.516Z,60.8
2018-08-24T10:14:10.118Z,60.8
2018-08-24T10:14:59.660Z,60.8
2018-08-24T10:15:50.210Z,60.9
2018-08-24T10:16:40.547Z,60.9
2018-08-24T10:17:30.363Z,60.9
2018-08-24T10:18:20.391Z,61
2018-08-24T10:19:10.735Z,61
2018-08-24T10:20:00.831Z,61.1
2018-08-24T10:20:50.587Z,61.1
2018-08-24T10:21:40.946Z,61.2
2018-08-24T10:22:30.164Z,61.2
2018-08-24T10:23:21.023Z,61.3
2018-08-24T10:24:11.122Z,61.3
2018-08-24T10:25:01.429Z,61.4
2018-08-24T10:25:51.258Z,61.4
2018-08-24T10:26:41.069Z,61.4
2018-08-24T10:27:31.178Z,61.5
2018-08-24T10:28:21.702Z,61.5
2018-08-24T10:29:12.061Z,61.6
2018-08-24T10:30:01.583Z,61.6
2018-08-24T10:30:51.385Z,61.6
2018-08-24T10:31:41.426Z,61.7
2018-08-24T10:32:31.802Z,61.8
2018-08-24T10:33:22.116Z,61.8
2018-08-24T10:34:11.983Z,61.9
2018-08-24T10:35:01.759Z,61.9
2018-08-24T10:35:52.053Z,61.9
2018-08-24T10:36:42.347Z,61.9
2018-08-24T10:37:31.629Z,62
2018-08-24T10:38:22.263Z,62.1
2018-08-24T10:39:13.091Z,62.1
2018-08-24T10:40:02.115Z,62.2
2018-08-24T10:40:52.626Z,62.2
2018-08-24T10:41:42.274Z,62.3
2018-08-24T10:42:32.329Z,62.3
2018-08-24T10:43:22.085Z,62.3
2018-08-24T10:44:12.471Z,62.4
2018-08-24T10:45:02.765Z,62.4
2018-08-24T10:45:52.863Z,62.4
2018-08-24T10:46:42.043Z,62.4
2018-08-24T10:47:32.451Z,62.5
2018-08-24T10:48:23.092Z,62.6
2018-08-24T10:49:12.908Z,62.6
2018-08-24T10:50:03.187Z,62.6
2018-08-24T10:50:53.268Z,62.7
2018-08-24T10:51:42.448Z,62.7
2018-08-24T10:52:32.792Z,62.8
2018-08-24T10:53:23.174Z,62.8
2018-08-24T10:54:13.220Z,62.8
2018-08-24T10:55:04.628Z,62.9
2018-08-24T10:55:54.328Z,62.9
2018-08-24T10:56:42.874Z,62.9
2018-08-24T10:57:33.250Z,62.9
2018-08-24T10:58:23.249Z,63
2018-08-24T10:59:13.915Z,63.1
2018-08-24T11:00:03.748Z,63.1
2018-08-24T11:00:53.732Z,63.1
2018-08-24T11:01:44.086Z,63.2
2018-08-24T11:02:34.436Z,63.2
2018-08-24T11:03:24.227Z,63.3
2018-08-24T11:04:13.734Z,63.3
2018-08-24T11:05:03.527Z,63.3
2018-08-24T11:05:53.980Z,63.4
2018-08-24T11:06:44.211Z,63.4
2018-08-24T11:07:35.268Z,63.4
2018-08-24T11:08:24.146Z,63.5
2018-08-24T11:09:14.683Z,63.6
2018-08-24T11:10:04.753Z,63.6
2018-08-24T11:10:54.552Z,63.6
2018-08-24T11:11:44.645Z,63.6
2018-08-24T11:12:34.140Z,63.7
2018-08-24T11:13:24.459Z,63.7
2018-08-24T11:14:14.233Z,63.8
2018-08-24T11:15:05.153Z,63.8
2018-08-24T11:15:54.659Z,63.8
2018-08-24T11:16:45.900Z,63.8
2018-08-24T11:17:35.354Z,63.9
2018-08-24T11:18:25.526Z,63.9
2018-08-24T11:19:15.281Z,63.9
2018-08-24T11:20:05.022Z,64
2018-08-24T11:20:55.540Z,64
2018-08-24T11:21:45.682Z,64.1
2018-08-24T11:22:35.436Z,64.1
2018-08-24T11:23:25.844Z,64.1
2018-08-24T11:24:15.890Z,64.2
2018-08-24T11:25:05.924Z,64.2
2018-08-24T11:25:55.155Z,64.3
2018-08-24T11:26:46.183Z,64.3
2018-08-24T11:27:35.823Z,64.3
2018-08-24T11:28:26.203Z,64.4
2018-08-24T11:29:16.581Z,64.4
2018-08-24T11:30:05.821Z,64.4
2018-08-24T11:30:55.818Z,64.4
2018-08-24T11:31:46.175Z,64.5
2018-08-24T11:32:36.224Z,64.6
2018-08-24T11:33:26.122Z,64.6
2018-08-24T11:34:16.686Z,64.6
2018-08-24T11:35:06.716Z,64.6
2018-08-24T11:35:57.464Z,64.7
2018-08-24T11:36:46.547Z,64.7
2018-08-24T11:37:36.307Z,64.8
2018-08-24T11:38:26.142Z,64.8
2018-08-24T11:39:17.082Z,64.8
2018-08-24T11:40:07.071Z,64.8
2018-08-24T11:40:56.924Z,64.9
2018-08-24T11:41:47.957Z,64.9
2018-08-24T11:42:37.036Z,64.9
2018-08-24T11:43:26.244Z,64.9
2018-08-24T11:44:17.438Z,65
2018-08-24T11:45:06.944Z,65
2018-08-24T11:45:56.991Z,65
2018-08-24T11:46:47.325Z,65.1
2018-08-24T11:47:37.125Z,65.1
2018-08-24T11:48:28.007Z,65.1
2018-08-24T11:49:17.007Z,65.1
2018-08-24T11:50:07.877Z,65.2
2018-08-24T11:50:57.373Z,65.2
2018-08-24T11:51:48.002Z,65.3
2018-08-24T11:52:37.799Z,65.3
2018-08-24T11:53:28.401Z,65.3
2018-08-24T11:54:19.175Z,65.3
2018-08-24T11:55:08.026Z,65.3
2018-08-24T11:55:58.384Z,65.4
2018-08-24T11:56:48.195Z,65.4
2018-08-24T11:57:37.944Z,65.4
2018-08-24T11:58:29.293Z,65.4
2018-08-24T11:59:18.602Z,65.4
2018-08-24T12:00:08.677Z,65.5
2018-08-24T12:00:58.744Z,65.5
2018-08-24T12:01:48.780Z,65.5
2018-08-24T12:02:38.862Z,65.6